sensor_id;sensor_type;location;lat;lon;timestamp;P1;durP1;ratioP1;P2;durP2;ratioP2
38037;SDS011;23843;51.320;12.340;2023-06-26T00:01:57;0.63;;;0.63;;
38037;SDS011;23843;51.320;12.340;2023-06-26T00:04:23;0.50;;;0.50;;
38037;SDS011;23843;51.320;12.340;2023-06-26T00:06:48;0.75;;;0.75;;
38037;SDS011;23843;51.320;12.340;2023-06-26T00:09:15;0.70;;;0.70;;
38037;SDS011;23843;51.320;12.340;2023-06-26T00:11:40;0.80;;;0.80;;
38037;SDS011;23843;51.320;12.340;2023-06-26T00:14:09;0.80;;;0.80;;
38037;SDS011;23843;51.320;12.340;2023-06-26T00:16:34;0.80;;;0.80;;
38037;SDS011;23843;51.320;12.340;2023-06-26T00:19:02;0.90;;;0.90;;
38037;SDS011;23843;51.320;12.340;2023-06-26T00:21:28;0.60;;;0.60;;
38037;SDS011;23843;51.320;12.340;2023-06-26T00:23:53;0.60;;;0.60;;
38037;SDS011;23843;51.320;12.340;2023-06-26T00:26:20;0.50;;;0.50;;
38037;SDS011;23843;51.320;12.340;2023-06-26T00:28:45;0.60;;;0.60;;
38037;SDS011;23843;51.320;12.340;2023-06-26T00:31:11;0.95;;;0.90;;
38037;SDS011;23843;51.320;12.340;2023-06-26T00:33:36;1.05;;;0.93;;
38037;SDS011;23843;51.320;12.340;2023-06-26T00:36:02;0.60;;;0.60;;
38037;SDS011;23843;51.320;12.340;2023-06-26T00:38:28;0.60;;;0.60;;
38037;SDS011;23843;51.320;12.340;2023-06-26T00:40:53;0.80;;;0.80;;
38037;SDS011;23843;51.320;12.340;2023-06-26T00:43:20;0.43;;;0.43;;
38037;SDS011;23843;51.320;12.340;2023-06-26T00:45:46;0.52;;;0.52;;
38037;SDS011;23843;51.320;12.340;2023-06-26T00:48:12;0.60;;;0.60;;
38037;SDS011;23843;51.320;12.340;2023-06-26T00:50:42;0.50;;;0.50;;
38037;SDS011;23843;51.320;12.340;2023-06-26T00:53:08;0.47;;;0.47;;
38037;SDS011;23843;51.320;12.340;2023-06-26T00:55:34;0.60;;;0.60;;
38037;SDS011;23843;51.320;12.340;2023-06-26T00:58:00;0.80;;;0.80;;
38037;SDS011;23843;51.320;12.340;2023-06-26T01:00:29;0.65;;;0.65;;
38037;SDS011;23843;51.320;12.340;2023-06-26T01:02:54;0.40;;;0.40;;
38037;SDS011;23843;51.320;12.340;2023-06-26T01:05:20;0.63;;;0.63;;
38037;SDS011;23843;51.320;12.340;2023-06-26T01:07:46;0.73;;;0.70;;
38037;SDS011;23843;51.320;12.340;2023-06-26T01:10:15;0.80;;;0.80;;
38037;SDS011;23843;51.320;12.340;2023-06-26T01:12:41;0.70;;;0.70;;
38037;SDS011;23843;51.320;12.340;2023-06-26T01:15:07;1.23;;;1.13;;
38037;SDS011;23843;51.320;12.340;2023-06-26T01:17:36;1.13;;;1.00;;
38037;SDS011;23843;51.320;12.340;2023-06-26T01:20:03;1.42;;;1.33;;
38037;SDS011;23843;51.320;12.340;2023-06-26T01:22:33;1.42;;;1.33;;
38037;SDS011;23843;51.320;12.340;2023-06-26T01:25:03;1.20;;;1.10;;
38037;SDS011;23843;51.320;12.340;2023-06-26T01:27:39;1.20;;;1.10;;
38037;SDS011;23843;51.320;12.340;2023-06-26T01:30:07;1.10;;;1.00;;
38037;SDS011;23843;51.320;12.340;2023-06-26T01:32:34;0.90;;;0.90;;
38037;SDS011;23843;51.320;12.340;2023-06-26T01:34:59;1.48;;;1.35;;
38037;SDS011;23843;51.320;12.340;2023-06-26T01:37:26;1.80;;;1.35;;
38037;SDS011;23843;51.320;12.340;2023-06-26T01:39:52;1.33;;;1.20;;
38037;SDS011;23843;51.320;12.340;2023-06-26T01:42:17;1.10;;;1.00;;
38037;SDS011;23843;51.320;12.340;2023-06-26T01:44:45;1.00;;;0.80;;
38037;SDS011;23843;51.320;12.340;2023-06-26T01:47:16;0.80;;;0.80;;
38037;SDS011;23843;51.320;12.340;2023-06-26T01:49:46;1.00;;;1.00;;
38037;SDS011;23843;51.320;12.340;2023-06-26T01:52:14;0.60;;;0.60;;
38037;SDS011;23843;51.320;12.340;2023-06-26T01:54:58;0.70;;;0.70;;
38037;SDS011;23843;51.320;12.340;2023-06-26T01:57:28;0.60;;;0.60;;
38037;SDS011;23843;51.320;12.340;2023-06-26T01:59:57;1.02;;;0.95;;
38037;SDS011;23843;51.320;12.340;2023-06-26T02:02:29;1.10;;;1.00;;
38037;SDS011;23843;51.320;12.340;2023-06-26T02:04:55;0.70;;;0.70;;
38037;SDS011;23843;51.320;12.340;2023-06-26T02:07:20;0.90;;;0.90;;
38037;SDS011;23843;51.320;12.340;2023-06-26T02:09:46;0.77;;;0.77;;
38037;SDS011;23843;51.320;12.340;2023-06-26T02:12:11;0.85;;;0.85;;
38037;SDS011;23843;51.320;12.340;2023-06-26T02:14:37;1.30;;;1.20;;
38037;SDS011;23843;51.320;12.340;2023-06-26T02:17:08;1.20;;;1.10;;
38037;SDS011;23843;51.320;12.340;2023-06-26T02:19:35;1.48;;;1.38;;
38037;SDS011;23843;51.320;12.340;2023-06-26T02:22:04;0.98;;;0.98;;
38037;SDS011;23843;51.320;12.340;2023-06-26T02:24:30;1.27;;;1.17;;
38037;SDS011;23843;51.320;12.340;2023-06-26T02:26:58;0.85;;;0.85;;
38037;SDS011;23843;51.320;12.340;2023-06-26T02:29:24;1.10;;;1.00;;
38037;SDS011;23843;51.320;12.340;2023-06-26T02:31:49;0.80;;;0.80;;
38037;SDS011;23843;51.320;12.340;2023-06-26T02:34:16;1.60;;;1.50;;
38037;SDS011;23843;51.320;12.340;2023-06-26T02:36:41;1.95;;;1.75;;
38037;SDS011;23843;51.320;12.340;2023-06-26T02:39:07;1.80;;;1.70;;
38037;SDS011;23843;51.320;12.340;2023-06-26T02:41:32;0.80;;;0.80;;
38037;SDS011;23843;51.320;12.340;2023-06-26T02:43:58;1.25;;;1.15;;
38037;SDS011;23843;51.320;12.340;2023-06-26T02:46:23;1.60;;;1.10;;
38037;SDS011;23843;51.320;12.340;2023-06-26T02:48:49;1.67;;;1.50;;
38037;SDS011;23843;51.320;12.340;2023-06-26T02:51:15;1.40;;;1.30;;
38037;SDS011;23843;51.320;12.340;2023-06-26T02:53:41;1.00;;;0.90;;
38037;SDS011;23843;51.320;12.340;2023-06-26T02:56:06;1.92;;;1.73;;
38037;SDS011;23843;51.320;12.340;2023-06-26T02:58:32;1.92;;;1.75;;
38037;SDS011;23843;51.320;12.340;2023-06-26T03:00:57;1.50;;;1.40;;
38037;SDS011;23843;51.320;12.340;2023-06-26T03:03:23;1.40;;;1.30;;
38037;SDS011;23843;51.320;12.340;2023-06-26T03:05:48;1.73;;;1.63;;
38037;SDS011;23843;51.320;12.340;2023-06-26T03:08:15;2.33;;;1.40;;
38037;SDS011;23843;51.320;12.340;2023-06-26T03:10:41;2.78;;;2.50;;
38037;SDS011;23843;51.320;12.340;2023-06-26T03:13:12;3.38;;;2.20;;
38037;SDS011;23843;51.320;12.340;2023-06-26T03:15:40;2.65;;;2.10;;
38037;SDS011;23843;51.320;12.340;2023-06-26T03:18:06;2.17;;;1.90;;
38037;SDS011;23843;51.320;12.340;2023-06-26T03:20:34;2.60;;;2.40;;
38037;SDS011;23843;51.320;12.340;2023-06-26T03:22:59;2.75;;;2.47;;
38037;SDS011;23843;51.320;12.340;2023-06-26T03:25:26;2.72;;;2.53;;
38037;SDS011;23843;51.320;12.340;2023-06-26T03:27:51;2.00;;;1.77;;
38037;SDS011;23843;51.320;12.340;2023-06-26T03:30:17;1.58;;;1.48;;
38037;SDS011;23843;51.320;12.340;2023-06-26T03:32:42;1.80;;;1.70;;
38037;SDS011;23843;51.320;12.340;2023-06-26T03:35:08;2.47;;;2.10;;
38037;SDS011;23843;51.320;12.340;2023-06-26T03:37:33;2.10;;;2.00;;
38037;SDS011;23843;51.320;12.340;2023-06-26T03:39:59;1.50;;;1.40;;
38037;SDS011;23843;51.320;12.340;2023-06-26T03:42:26;3.28;;;2.00;;
38037;SDS011;23843;51.320;12.340;2023-06-26T03:44:51;4.22;;;3.00;;
38037;SDS011;23843;51.320;12.340;2023-06-26T03:47:17;3.03;;;2.72;;
38037;SDS011;23843;51.320;12.340;2023-06-26T03:49:45;3.20;;;2.90;;
38037;SDS011;23843;51.320;12.340;2023-06-26T03:52:10;3.28;;;2.97;;
38037;SDS011;23843;51.320;12.340;2023-06-26T03:54:36;3.75;;;2.67;;
38037;SDS011;23843;51.320;12.340;2023-06-26T03:57:02;3.17;;;2.88;;
38037;SDS011;23843;51.320;12.340;2023-06-26T03:59:28;3.65;;;3.03;;
38037;SDS011;23843;51.320;12.340;2023-06-26T04:01:54;2.90;;;2.60;;
38037;SDS011;23843;51.320;12.340;2023-06-26T04:04:20;2.90;;;2.65;;
38037;SDS011;23843;51.320;12.340;2023-06-26T04:06:45;2.50;;;2.10;;
38037;SDS011;23843;51.320;12.340;2023-06-26T04:09:13;3.33;;;3.03;;
38037;SDS011;23843;51.320;12.340;2023-06-26T04:11:42;4.07;;;3.30;;
38037;SDS011;23843;51.320;12.340;2023-06-26T04:14:13;4.28;;;3.70;;
38037;SDS011;23843;51.320;12.340;2023-06-26T04:16:40;4.05;;;3.65;;
38037;SDS011;23843;51.320;12.340;2023-06-26T04:19:06;4.22;;;3.10;;
38037;SDS011;23843;51.320;12.340;2023-06-26T04:21:31;3.35;;;2.97;;
38037;SDS011;23843;51.320;12.340;2023-06-26T04:23:57;3.60;;;3.30;;
38037;SDS011;23843;51.320;12.340;2023-06-26T04:26:25;4.10;;;3.70;;
38037;SDS011;23843;51.320;12.340;2023-06-26T04:28:53;4.93;;;3.60;;
38037;SDS011;23843;51.320;12.340;2023-06-26T04:31:18;4.05;;;3.55;;
38037;SDS011;23843;51.320;12.340;2023-06-26T04:33:45;3.47;;;3.17;;
38037;SDS011;23843;51.320;12.340;2023-06-26T04:36:12;3.53;;;3.22;;
38037;SDS011;23843;51.320;12.340;2023-06-26T04:38:37;3.80;;;3.17;;
38037;SDS011;23843;51.320;12.340;2023-06-26T04:41:03;3.25;;;2.95;;
38037;SDS011;23843;51.320;12.340;2023-06-26T04:43:31;2.78;;;2.58;;
38037;SDS011;23843;51.320;12.340;2023-06-26T04:45:57;3.30;;;3.00;;
38037;SDS011;23843;51.320;12.340;2023-06-26T04:48:22;3.15;;;2.85;;
38037;SDS011;23843;51.320;12.340;2023-06-26T04:50:52;3.10;;;2.80;;
38037;SDS011;23843;51.320;12.340;2023-06-26T04:53:20;4.25;;;3.83;;
38037;SDS011;23843;51.320;12.340;2023-06-26T04:55:46;3.97;;;3.58;;
38037;SDS011;23843;51.320;12.340;2023-06-26T04:58:14;4.32;;;3.92;;
38037;SDS011;23843;51.320;12.340;2023-06-26T05:00:39;3.25;;;2.95;;
38037;SDS011;23843;51.320;12.340;2023-06-26T05:03:05;3.17;;;2.88;;
38037;SDS011;23843;51.320;12.340;2023-06-26T05:05:34;4.22;;;3.40;;
38037;SDS011;23843;51.320;12.340;2023-06-26T05:08:12;3.85;;;3.55;;
38037;SDS011;23843;51.320;12.340;2023-06-26T05:10:41;3.42;;;3.13;;
38037;SDS011;23843;51.320;12.340;2023-06-26T05:13:07;4.05;;;3.65;;
38037;SDS011;23843;51.320;12.340;2023-06-26T05:15:33;3.70;;;3.40;;
38037;SDS011;23843;51.320;12.340;2023-06-26T05:17:58;4.13;;;3.83;;
38037;SDS011;23843;51.320;12.340;2023-06-26T05:20:24;4.50;;;3.97;;
38037;SDS011;23843;51.320;12.340;2023-06-26T05:22:50;4.25;;;3.80;;
38037;SDS011;23843;51.320;12.340;2023-06-26T05:25:17;3.78;;;3.47;;
38037;SDS011;23843;51.320;12.340;2023-06-26T05:27:43;3.97;;;3.58;;
38037;SDS011;23843;51.320;12.340;2023-06-26T05:30:10;4.30;;;3.67;;
38037;SDS011;23843;51.320;12.340;2023-06-26T05:32:37;4.60;;;3.90;;
38037;SDS011;23843;51.320;12.340;2023-06-26T05:35:10;3.47;;;3.17;;
38037;SDS011;23843;51.320;12.340;2023-06-26T05:37:42;4.45;;;3.83;;
38037;SDS011;23843;51.320;12.340;2023-06-26T05:40:09;4.35;;;3.67;;
38037;SDS011;23843;51.320;12.340;2023-06-26T05:42:37;3.28;;;2.97;;
38037;SDS011;23843;51.320;12.340;2023-06-26T05:45:03;2.53;;;2.33;;
38037;SDS011;23843;51.320;12.340;2023-06-26T05:47:29;4.07;;;3.40;;
38037;SDS011;23843;51.320;12.340;2023-06-26T05:49:54;4.22;;;3.83;;
38037;SDS011;23843;51.320;12.340;2023-06-26T05:52:20;3.72;;;3.42;;
38037;SDS011;23843;51.320;12.340;2023-06-26T05:54:46;3.63;;;3.28;;
38037;SDS011;23843;51.320;12.340;2023-06-26T05:57:12;3.30;;;3.10;;
38037;SDS011;23843;51.320;12.340;2023-06-26T05:59:40;3.40;;;3.10;;
38037;SDS011;23843;51.320;12.340;2023-06-26T06:02:05;3.75;;;3.45;;
38037;SDS011;23843;51.320;12.340;2023-06-26T06:04:31;3.10;;;2.90;;
38037;SDS011;23843;51.320;12.340;2023-06-26T06:06:56;3.13;;;2.92;;
38037;SDS011;23843;51.320;12.340;2023-06-26T06:09:22;3.75;;;3.45;;
38037;SDS011;23843;51.320;12.340;2023-06-26T06:11:47;3.13;;;2.92;;
38037;SDS011;23843;51.320;12.340;2023-06-26T06:14:13;3.00;;;2.80;;
38037;SDS011;23843;51.320;12.340;2023-06-26T06:16:40;3.47;;;3.20;;
38037;SDS011;23843;51.320;12.340;2023-06-26T06:19:05;3.28;;;3.08;;
38037;SDS011;23843;51.320;12.340;2023-06-26T06:21:31;3.00;;;2.80;;
38037;SDS011;23843;51.320;12.340;2023-06-26T06:23:56;2.85;;;2.65;;
38037;SDS011;23843;51.320;12.340;2023-06-26T06:26:22;3.03;;;2.83;;
38037;SDS011;23843;51.320;12.340;2023-06-26T06:28:47;3.53;;;3.22;;
38037;SDS011;23843;51.320;12.340;2023-06-26T06:31:12;3.17;;;2.88;;
38037;SDS011;23843;51.320;12.340;2023-06-26T06:33:39;2.60;;;2.40;;
38037;SDS011;23843;51.320;12.340;2023-06-26T06:36:05;2.70;;;2.50;;
38037;SDS011;23843;51.320;12.340;2023-06-26T06:38:31;3.40;;;3.20;;
38037;SDS011;23843;51.320;12.340;2023-06-26T06:40:56;3.13;;;2.92;;
38037;SDS011;23843;51.320;12.340;2023-06-26T06:43:22;3.00;;;2.80;;
38037;SDS011;23843;51.320;12.340;2023-06-26T06:45:47;3.30;;;3.00;;
38037;SDS011;23843;51.320;12.340;2023-06-26T06:48:13;3.33;;;3.10;;
38037;SDS011;23843;51.320;12.340;2023-06-26T06:50:39;4.07;;;3.78;;
38037;SDS011;23843;51.320;12.340;2023-06-26T06:53:05;3.30;;;3.10;;
38037;SDS011;23843;51.320;12.340;2023-06-26T06:55:30;3.50;;;3.30;;
38037;SDS011;23843;51.320;12.340;2023-06-26T06:57:56;3.78;;;3.45;;
38037;SDS011;23843;51.320;12.340;2023-06-26T07:00:21;3.10;;;2.90;;
38037;SDS011;23843;51.320;12.340;2023-06-26T07:02:47;3.30;;;3.10;;
38037;SDS011;23843;51.320;12.340;2023-06-26T07:05:12;3.30;;;3.10;;
38037;SDS011;23843;51.320;12.340;2023-06-26T07:07:39;3.30;;;3.10;;
38037;SDS011;23843;51.320;12.340;2023-06-26T07:10:05;4.13;;;3.80;;
38037;SDS011;23843;51.320;12.340;2023-06-26T07:12:32;4.20;;;3.90;;
38037;SDS011;23843;51.320;12.340;2023-06-26T07:14:58;4.05;;;3.85;;
38037;SDS011;23843;51.320;12.340;2023-06-26T07:17:23;4.15;;;3.85;;
38037;SDS011;23843;51.320;12.340;2023-06-26T07:19:49;3.78;;;3.58;;
38037;SDS011;23843;51.320;12.340;2023-06-26T07:22:14;4.30;;;3.90;;
38037;SDS011;23843;51.320;12.340;2023-06-26T07:24:41;5.07;;;3.70;;
38037;SDS011;23843;51.320;12.340;2023-06-26T07:27:07;3.10;;;2.90;;
38037;SDS011;23843;51.320;12.340;2023-06-26T07:29:32;3.63;;;3.40;;
38037;SDS011;23843;51.320;12.340;2023-06-26T07:31:58;4.20;;;3.90;;
38037;SDS011;23843;51.320;12.340;2023-06-26T07:34:23;3.45;;;3.25;;
38037;SDS011;23843;51.320;12.340;2023-06-26T07:36:49;3.28;;;3.05;;
38037;SDS011;23843;51.320;12.340;2023-06-26T07:39:14;2.70;;;2.50;;
38037;SDS011;23843;51.320;12.340;2023-06-26T07:41:41;2.70;;;2.50;;
38037;SDS011;23843;51.320;12.340;2023-06-26T07:44:07;3.65;;;3.35;;
38037;SDS011;23843;51.320;12.340;2023-06-26T07:46:32;2.90;;;2.70;;
38037;SDS011;23843;51.320;12.340;2023-06-26T07:48:58;2.38;;;2.28;;
38037;SDS011;23843;51.320;12.340;2023-06-26T07:51:23;2.47;;;2.28;;
38037;SDS011;23843;51.320;12.340;2023-06-26T07:53:49;3.50;;;3.30;;
38037;SDS011;23843;51.320;12.340;2023-06-26T07:56:14;2.92;;;2.72;;
38037;SDS011;23843;51.320;12.340;2023-06-26T07:58:41;3.83;;;3.53;;
38037;SDS011;23843;51.320;12.340;2023-06-26T08:01:07;2.90;;;2.58;;
38037;SDS011;23843;51.320;12.340;2023-06-26T08:03:32;3.40;;;3.10;;
38037;SDS011;23843;51.320;12.340;2023-06-26T08:05:57;2.95;;;2.65;;
38037;SDS011;23843;51.320;12.340;2023-06-26T08:08:23;3.00;;;2.80;;
38037;SDS011;23843;51.320;12.340;2023-06-26T08:10:49;2.72;;;2.53;;
38037;SDS011;23843;51.320;12.340;2023-06-26T08:13:14;2.88;;;2.67;;
38037;SDS011;23843;51.320;12.340;2023-06-26T08:15:41;3.35;;;3.08;;
38037;SDS011;23843;51.320;12.340;2023-06-26T08:18:06;2.80;;;2.60;;
38037;SDS011;23843;51.320;12.340;2023-06-26T08:20:32;3.75;;;3.45;;
38037;SDS011;23843;51.320;12.340;2023-06-26T08:22:58;3.28;;;2.75;;
38037;SDS011;23843;51.320;12.340;2023-06-26T08:25:23;2.80;;;2.60;;
38037;SDS011;23843;51.320;12.340;2023-06-26T08:27:49;3.40;;;3.10;;
38037;SDS011;23843;51.320;12.340;2023-06-26T08:30:14;3.08;;;2.88;;
38037;SDS011;23843;51.320;12.340;2023-06-26T08:32:41;2.33;;;2.20;;
38037;SDS011;23843;51.320;12.340;2023-06-26T08:35:07;1.70;;;1.60;;
38037;SDS011;23843;51.320;12.340;2023-06-26T08:37:32;2.00;;;1.83;;
38037;SDS011;23843;51.320;12.340;2023-06-26T08:39:58;2.33;;;1.70;;
38037;SDS011;23843;51.320;12.340;2023-06-26T08:42:24;2.92;;;2.50;;
38037;SDS011;23843;51.320;12.340;2023-06-26T08:44:49;2.75;;;2.55;;
38037;SDS011;23843;51.320;12.340;2023-06-26T08:47:15;2.65;;;2.45;;
38037;SDS011;23843;51.320;12.340;2023-06-26T08:49:46;3.40;;;3.10;;
38037;SDS011;23843;51.320;12.340;2023-06-26T08:52:17;2.50;;;2.30;;
38037;SDS011;23843;51.320;12.340;2023-06-26T08:54:45;2.50;;;2.30;;
38037;SDS011;23843;51.320;12.340;2023-06-26T08:57:11;2.20;;;2.10;;
38037;SDS011;23843;51.320;12.340;2023-06-26T08:59:39;1.77;;;1.67;;
38037;SDS011;23843;51.320;12.340;2023-06-26T09:02:05;1.60;;;1.50;;
38037;SDS011;23843;51.320;12.340;2023-06-26T09:04:31;1.77;;;1.67;;
38037;SDS011;23843;51.320;12.340;2023-06-26T09:06:57;2.22;;;2.13;;
38037;SDS011;23843;51.320;12.340;2023-06-26T09:09:23;2.28;;;2.08;;
38037;SDS011;23843;51.320;12.340;2023-06-26T09:11:48;1.98;;;1.88;;
38037;SDS011;23843;51.320;12.340;2023-06-26T09:14:14;2.50;;;2.30;;
38037;SDS011;23843;51.320;12.340;2023-06-26T09:16:40;1.73;;;1.63;;
38037;SDS011;23843;51.320;12.340;2023-06-26T09:19:09;2.00;;;1.90;;
38037;SDS011;23843;51.320;12.340;2023-06-26T09:24:22;1.77;;;1.67;;
38037;SDS011;23843;51.320;12.340;2023-06-26T09:26:48;2.60;;;2.40;;
38037;SDS011;23843;51.320;12.340;2023-06-26T09:29:14;3.15;;;2.70;;
38037;SDS011;23843;51.320;12.340;2023-06-26T09:31:39;2.40;;;2.20;;
38037;SDS011;23843;51.320;12.340;2023-06-26T09:34:05;2.30;;;2.13;;
38037;SDS011;23843;51.320;12.340;2023-06-26T09:36:32;1.33;;;1.23;;
38037;SDS011;23843;51.320;12.340;2023-06-26T09:38:59;2.30;;;2.20;;
38037;SDS011;23843;51.320;12.340;2023-06-26T09:41:26;2.00;;;1.90;;
38037;SDS011;23843;51.320;12.340;2023-06-26T09:43:52;2.60;;;2.40;;
38037;SDS011;23843;51.320;12.340;2023-06-26T09:46:23;2.30;;;2.10;;
38037;SDS011;23843;51.320;12.340;2023-06-26T09:48:50;2.88;;;2.63;;
38037;SDS011;23843;51.320;12.340;2023-06-26T09:51:22;2.63;;;2.42;;
38037;SDS011;23843;51.320;12.340;2023-06-26T09:53:48;2.40;;;2.20;;
38037;SDS011;23843;51.320;12.340;2023-06-26T09:56:14;2.20;;;2.10;;
38037;SDS011;23843;51.320;12.340;2023-06-26T09:58:42;2.15;;;1.95;;
38037;SDS011;23843;51.320;12.340;2023-06-26T10:01:09;2.00;;;1.90;;
38037;SDS011;23843;51.320;12.340;2023-06-26T10:03:34;1.90;;;1.80;;
38037;SDS011;23843;51.320;12.340;2023-06-26T10:06:00;2.80;;;2.60;;
38037;SDS011;23843;51.320;12.340;2023-06-26T10:08:27;3.20;;;3.00;;
38037;SDS011;23843;51.320;12.340;2023-06-26T10:10:53;2.65;;;2.45;;
38037;SDS011;23843;51.320;12.340;2023-06-26T10:13:20;2.60;;;2.40;;
38037;SDS011;23843;51.320;12.340;2023-06-26T10:15:54;1.80;;;1.70;;
38037;SDS011;23843;51.320;12.340;2023-06-26T10:18:20;2.53;;;2.33;;
38037;SDS011;23843;51.320;12.340;2023-06-26T10:20:48;3.00;;;2.70;;
38037;SDS011;23843;51.320;12.340;2023-06-26T10:23:15;2.65;;;2.40;;
38037;SDS011;23843;51.320;12.340;2023-06-26T10:25:44;1.88;;;1.77;;
38037;SDS011;23843;51.320;12.340;2023-06-26T10:28:13;2.40;;;2.20;;
38037;SDS011;23843;51.320;12.340;2023-06-26T10:30:41;2.17;;;2.08;;
38037;SDS011;23843;51.320;12.340;2023-06-26T10:33:11;1.67;;;1.58;;
38037;SDS011;23843;51.320;12.340;2023-06-26T10:35:41;1.75;;;1.30;;
38037;SDS011;23843;51.320;12.340;2023-06-26T10:38:07;1.80;;;1.70;;
38037;SDS011;23843;51.320;12.340;2023-06-26T10:40:39;2.20;;;2.10;;
38037;SDS011;23843;51.320;12.340;2023-06-26T10:43:06;1.83;;;1.73;;
38037;SDS011;23843;51.320;12.340;2023-06-26T10:45:32;2.00;;;1.90;;
38037;SDS011;23843;51.320;12.340;2023-06-26T10:47:58;1.92;;;1.83;;
38037;SDS011;23843;51.320;12.340;2023-06-26T10:50:27;1.55;;;1.45;;
38037;SDS011;23843;51.320;12.340;2023-06-26T10:55:37;1.50;;;1.40;;
38037;SDS011;23843;51.320;12.340;2023-06-26T10:58:06;1.58;;;1.48;;
38037;SDS011;23843;51.320;12.340;2023-06-26T11:00:52;2.20;;;2.00;;
38037;SDS011;23843;51.320;12.340;2023-06-26T11:03:23;1.42;;;1.33;;
38037;SDS011;23843;51.320;12.340;2023-06-26T11:05:58;1.45;;;1.35;;
38037;SDS011;23843;51.320;12.340;2023-06-26T11:08:43;1.88;;;1.77;;
38037;SDS011;23843;51.320;12.340;2023-06-26T11:11:14;2.10;;;1.90;;
38037;SDS011;23843;51.320;12.340;2023-06-26T11:13:49;2.33;;;2.13;;
38037;SDS011;23843;51.320;12.340;2023-06-26T11:16:17;3.03;;;2.83;;
38037;SDS011;23843;51.320;12.340;2023-06-26T11:18:42;3.00;;;2.80;;
38037;SDS011;23843;51.320;12.340;2023-06-26T11:21:11;1.52;;;1.42;;
38037;SDS011;23843;51.320;12.340;2023-06-26T11:23:37;1.77;;;1.67;;
38037;SDS011;23843;51.320;12.340;2023-06-26T11:26:15;1.60;;;1.50;;
38037;SDS011;23843;51.320;12.340;2023-06-26T11:28:48;2.60;;;2.40;;
38037;SDS011;23843;51.320;12.340;2023-06-26T11:31:23;2.50;;;2.30;;
38037;SDS011;23843;51.320;12.340;2023-06-26T11:33:49;1.80;;;1.70;;
38037;SDS011;23843;51.320;12.340;2023-06-26T11:36:16;2.90;;;2.70;;
38037;SDS011;23843;51.320;12.340;2023-06-26T11:38:42;3.17;;;2.88;;
38037;SDS011;23843;51.320;12.340;2023-06-26T11:41:07;2.70;;;2.50;;
38037;SDS011;23843;51.320;12.340;2023-06-26T11:43:33;2.38;;;2.17;;
38037;SDS011;23843;51.320;12.340;2023-06-26T11:45:59;2.70;;;2.50;;
38037;SDS011;23843;51.320;12.340;2023-06-26T11:48:24;3.50;;;3.20;;
38037;SDS011;23843;51.320;12.340;2023-06-26T11:50:50;3.35;;;3.05;;
38037;SDS011;23843;51.320;12.340;2023-06-26T11:53:17;2.65;;;2.45;;
38037;SDS011;23843;51.320;12.340;2023-06-26T11:55:44;2.38;;;2.17;;
38037;SDS011;23843;51.320;12.340;2023-06-26T11:58:09;2.25;;;2.10;;
38037;SDS011;23843;51.320;12.340;2023-06-26T12:00:35;3.20;;;3.00;;
38037;SDS011;23843;51.320;12.340;2023-06-26T12:03:00;3.47;;;3.25;;
38037;SDS011;23843;51.320;12.340;2023-06-26T12:05:26;2.85;;;2.65;;
38037;SDS011;23843;51.320;12.340;2023-06-26T12:07:51;3.25;;;2.80;;
38037;SDS011;23843;51.320;12.340;2023-06-26T12:10:18;3.00;;;2.80;;
38037;SDS011;23843;51.320;12.340;2023-06-26T12:12:45;2.85;;;2.65;;
38037;SDS011;23843;51.320;12.340;2023-06-26T12:15:13;2.25;;;2.08;;
38037;SDS011;23843;51.320;12.340;2023-06-26T12:17:41;1.80;;;1.70;;
38037;SDS011;23843;51.320;12.340;2023-06-26T12:20:16;2.30;;;2.10;;
38037;SDS011;23843;51.320;12.340;2023-06-26T12:22:42;3.10;;;2.80;;
38037;SDS011;23843;51.320;12.340;2023-06-26T12:25:08;3.65;;;2.92;;
38037;SDS011;23843;51.320;12.340;2023-06-26T12:27:35;2.95;;;2.65;;
38037;SDS011;23843;51.320;12.340;2023-06-26T12:30:02;2.60;;;2.40;;
38037;SDS011;23843;51.320;12.340;2023-06-26T12:32:29;2.40;;;2.20;;
38037;SDS011;23843;51.320;12.340;2023-06-26T12:34:55;2.17;;;2.08;;
38037;SDS011;23843;51.320;12.340;2023-06-26T12:37:21;1.80;;;1.70;;
38037;SDS011;23843;51.320;12.340;2023-06-26T12:39:48;1.75;;;1.48;;
38037;SDS011;23843;51.320;12.340;2023-06-26T12:42:14;1.30;;;1.20;;
38037;SDS011;23843;51.320;12.340;2023-06-26T12:44:43;1.45;;;1.35;;
38037;SDS011;23843;51.320;12.340;2023-06-26T12:47:08;2.10;;;1.95;;
38037;SDS011;23843;51.320;12.340;2023-06-26T12:49:34;1.70;;;1.60;;
38037;SDS011;23843;51.320;12.340;2023-06-26T12:52:01;1.63;;;1.52;;
38037;SDS011;23843;51.320;12.340;2023-06-26T12:54:28;1.50;;;1.40;;
38037;SDS011;23843;51.320;12.340;2023-06-26T12:56:54;1.05;;;1.02;;
38037;SDS011;23843;51.320;12.340;2023-06-26T12:59:19;1.50;;;1.40;;
38037;SDS011;23843;51.320;12.340;2023-06-26T13:01:46;1.30;;;1.20;;
38037;SDS011;23843;51.320;12.340;2023-06-26T13:04:12;1.30;;;1.20;;
38037;SDS011;23843;51.320;12.340;2023-06-26T13:06:43;1.70;;;1.60;;
38037;SDS011;23843;51.320;12.340;2023-06-26T13:09:09;1.30;;;1.20;;
38037;SDS011;23843;51.320;12.340;2023-06-26T13:11:35;1.10;;;1.10;;
38037;SDS011;23843;51.320;12.340;2023-06-26T13:14:02;1.23;;;1.17;;
38037;SDS011;23843;51.320;12.340;2023-06-26T13:16:27;1.60;;;1.50;;
38037;SDS011;23843;51.320;12.340;2023-06-26T13:18:54;1.40;;;1.30;;
38037;SDS011;23843;51.320;12.340;2023-06-26T13:21:20;2.60;;;2.40;;
38037;SDS011;23843;51.320;12.340;2023-06-26T13:23:45;3.00;;;2.80;;
38037;SDS011;23843;51.320;12.340;2023-06-26T13:26:26;3.13;;;2.88;;
38037;SDS011;23843;51.320;12.340;2023-06-26T13:28:55;3.97;;;3.67;;
38037;SDS011;23843;51.320;12.340;2023-06-26T13:31:20;3.35;;;3.05;;
38037;SDS011;23843;51.320;12.340;2023-06-26T13:33:46;2.67;;;2.47;;
38037;SDS011;23843;51.320;12.340;2023-06-26T13:36:14;3.90;;;3.47;;
38037;SDS011;23843;51.320;12.340;2023-06-26T13:38:42;3.60;;;3.30;;
38037;SDS011;23843;51.320;12.340;2023-06-26T13:41:07;3.50;;;3.20;;
38037;SDS011;23843;51.320;12.340;2023-06-26T13:43:33;4.03;;;3.63;;
38037;SDS011;23843;51.320;12.340;2023-06-26T13:45:58;3.50;;;3.20;;
38037;SDS011;23843;51.320;12.340;2023-06-26T13:48:24;3.03;;;2.83;;
38037;SDS011;23843;51.320;12.340;2023-06-26T13:50:49;2.92;;;2.72;;
38037;SDS011;23843;51.320;12.340;2023-06-26T13:53:16;2.50;;;2.30;;
38037;SDS011;23843;51.320;12.340;2023-06-26T13:55:42;2.28;;;2.08;;
38037;SDS011;23843;51.320;12.340;2023-06-26T13:58:08;2.83;;;2.63;;
38037;SDS011;23843;51.320;12.340;2023-06-26T14:00:34;2.10;;;1.90;;
38037;SDS011;23843;51.320;12.340;2023-06-26T14:03:00;2.00;;;1.90;;
38037;SDS011;23843;51.320;12.340;2023-06-26T14:05:25;1.60;;;1.50;;
38037;SDS011;23843;51.320;12.340;2023-06-26T14:07:51;2.38;;;2.17;;
38037;SDS011;23843;51.320;12.340;2023-06-26T14:10:21;3.35;;;2.80;;
38037;SDS011;23843;51.320;12.340;2023-06-26T14:12:48;4.07;;;2.80;;
38037;SDS011;23843;51.320;12.340;2023-06-26T14:15:19;3.00;;;2.80;;
38037;SDS011;23843;51.320;12.340;2023-06-26T14:17:45;4.60;;;3.00;;
38037;SDS011;23843;51.320;12.340;2023-06-26T14:20:11;2.70;;;2.50;;
38037;SDS011;23843;51.320;12.340;2023-06-26T14:22:48;4.30;;;2.60;;
38037;SDS011;23843;51.320;12.340;2023-06-26T14:25:14;3.20;;;2.90;;
38037;SDS011;23843;51.320;12.340;2023-06-26T14:27:53;2.63;;;2.42;;
38037;SDS011;23843;51.320;12.340;2023-06-26T14:30:19;3.53;;;2.92;;
38037;SDS011;23843;51.320;12.340;2023-06-26T14:32:44;2.20;;;2.00;;
38037;SDS011;23843;51.320;12.340;2023-06-26T14:35:10;2.50;;;2.28;;
38037;SDS011;23843;51.320;12.340;2023-06-26T14:37:35;2.85;;;2.45;;